Time;durP1;ratioP1;P1;durP2;ratioP2;P2;SDS_P1;SDS_P2;PMS_P1;PMS_P2;Temp;Humidity;BMP_temperature;BMP_pressure;BME280_temperature;BME280_humidity;BME280_pressure;Samples;Min_cycle;Max_cycle;Signal;HPM_P1;HPM_P2
2021/03/16 00:05:22;;;;;;;1999.90;999.90;;;;;;;6.22;78.59;100586.91;15804302;28;20040;-66
2021/03/16 00:12:55;;;;;;;1999.90;999.90;;;;;;;6.25;78.63;100586.28;15820308;28;20062;-66
2021/03/16 00:20:26;;;;;;;1999.90;999.90;;;;;;;6.27;78.62;100600.69;15802397;28;20051;-65
2021/03/16 00:27:58;;;;;;;1999.90;999.90;;;;;;;6.36;78.62;100607.16;15800774;28;20124;-67
2021/03/16 00:35:30;;;;;;;1999.90;999.90;;;;;;;6.12;79.80;100612.06;15793819;28;20044;-66
2021/03/16 00:43:02;;;;;;;1999.90;999.90;;;;;;;6.14;79.39;100623.63;15801646;28;20067;-67
2021/03/16 00:50:34;;;;;;;1999.90;999.90;;;;;;;5.86;80.27;100631.88;15783665;28;20040;-66
2021/03/16 00:58:06;;;;;;;1999.90;999.90;;;;;;;6.10;80.11;100644.78;15766535;28;20577;-66
2021/03/16 01:05:38;;;;;;;1999.90;999.90;;;;;;;6.25;79.47;100650.03;15795257;28;20062;-66
2021/03/16 01:13:10;;;;;;;1999.90;999.90;;;;;;;6.16;80.56;100660.19;15778546;28;20641;-65
2021/03/16 01:20:42;;;;;;;1999.90;999.90;;;;;;;5.93;79.79;100656.44;15782951;28;20531;-66
2021/03/16 01:28:15;;;;;;;1999.90;999.90;;;;;;;5.93;79.95;100662.78;15782678;28;20052;-66
2021/03/16 01:35:46;;;;;;;1999.90;999.90;;;;;;;5.78;80.81;100672.16;15799049;28;20070;-66
2021/03/16 01:43:22;;;;;;;1999.90;999.90;;;;;;;5.91;79.98;100678.88;15790249;28;20151;-66
2021/03/16 01:50:54;;;;;;;1999.90;999.90;;;;;;;5.98;79.48;100687.66;15764367;28;20048;-66
2021/03/16 01:58:26;;;;;;;1999.90;999.90;;;;;;;5.84;79.02;100689.53;15792029;28;20048;-65
2021/03/16 02:06:21;;;;;;;1999.90;999.90;;;;;;;5.80;79.19;100691.22;15795645;28;20044;-66
2021/03/16 02:14:20;;;;;;;1999.90;999.90;;;;;;;5.91;78.76;100701.03;15797561;28;20111;-66
2021/03/16 02:22:10;;;;;;;1999.90;999.90;;;;;;;6.04;77.91;100714.16;15808919;28;20451;-66
2021/03/16 02:30:04;;;;;;;1999.90;999.90;;;;;;;5.74;77.54;100731.22;15793543;28;20048;-66
2021/03/16 02:37:56;;;;;;;1999.90;999.90;;;;;;;5.97;77.47;100741.41;15782738;28;20086;-66
2021/03/16 02:45:47;;;;;;;1999.90;999.90;;;;;;;5.62;77.43;100751.03;15771547;28;20090;-66
2021/03/16 02:53:38;;;;;;;1999.90;999.90;;;;;;;5.56;77.47;100762.50;15794173;28;20512;-66
2021/03/16 03:01:31;;;;;;;1999.90;999.90;;;;;;;5.75;76.74;100766.91;15750201;28;20523;-65
2021/03/16 03:09:21;;;;;;;1999.90;999.90;;;;;;;5.82;75.54;100780.34;15806749;28;20055;-66
2021/03/16 03:17:12;;;;;;;1999.90;999.90;;;;;;;5.60;76.09;100782.91;15797784;28;20044;-65
2021/03/16 03:25:08;;;;;;;1999.90;999.90;;;;;;;5.67;75.71;100792.50;15756479;28;20032;-67
2021/03/16 03:33:01;;;;;;;1999.90;999.90;;;;;;;5.68;76.16;100796.91;15787057;28;20508;-65
2021/03/16 03:40:52;;;;;;;;;;;;;;;5.59;75.20;100807.00;15761811;28;20044;-66
2021/03/16 03:48:44;;;;;;;1999.90;999.90;;;;;;;5.65;75.84;100827.16;15790350;28;19966;-64
2021/03/16 03:56:35;;;;;;;1999.90;999.90;;;;;;;5.80;74.63;100829.69;15791253;23;20507;-74
2021/03/16 04:04:28;;;;;;;1999.90;999.90;;;;;;;5.77;74.84;100849.69;15802864;28;20062;-73
2021/03/16 04:12:18;;;;;;;1999.90;999.90;;;;;;;5.72;74.78;100855.25;15853881;22;20052;-71
2021/03/16 04:20:11;;;;;;;1999.90;999.90;;;;;;;5.75;74.08;100860.22;15821212;28;20302;-72
2021/03/16 04:28:01;;;;;;;1999.90;999.90;;;;;;;5.63;74.16;100863.44;15812392;28;20192;-73
2021/03/16 04:35:53;;;;;;;1999.90;999.90;;;;;;;5.56;74.47;100870.44;15825863;28;20545;-72
2021/03/16 04:43:45;;;;;;;1999.90;999.90;;;;;;;5.43;75.32;100866.44;15824838;28;20043;-72
2021/03/16 04:51:36;;;;;;;1999.90;999.90;;;;;;;5.29;75.47;100885.69;15819657;28;20459;-72
2021/03/16 04:59:26;;;;;;;1999.90;999.90;;;;;;;5.21;75.58;100898.25;15807093;28;20052;-73
2021/03/16 05:07:17;;;;;;;1999.90;999.90;;;;;;;5.58;73.69;100921.63;15829334;28;20048;-72
2021/03/16 05:15:08;;;;;;;1999.90;999.90;;;;;;;5.62;73.73;100936.50;15810077;28;20513;-72
2021/03/16 05:22:59;;;;;;;1999.90;999.90;;;;;;;5.55;73.25;100938.81;15804935;28;20048;-72
2021/03/16 05:30:52;;;;;;;;;;;;;;;5.49;73.17;100946.34;15856447;28;20379;-71
2021/03/16 05:38:43;;;;;;;1999.90;999.90;;;;;;;5.53;72.90;100962.38;15816410;28;19920;-70
2021/03/16 05:46:43;;;;;;;1999.90;999.90;;;;;;;5.32;73.03;100978.38;15846486;28;20058;-71
2021/03/16 05:54:35;;;;;;;1999.90;999.90;;;;;;;5.70;70.96;100971.84;15842633;28;20063;-71
2021/03/16 06:02:25;;;;;;;1999.90;999.90;;;;;;;5.59;70.85;100986.09;15846202;28;20044;-71
2021/03/16 06:10:18;;;;;;;1999.90;999.90;;;;;;;5.63;70.42;101010.16;15828744;28;20145;-71
2021/03/16 06:18:12;;;;;;;1999.90;999.90;;;;;;;5.56;71.02;101022.69;15842882;28;20112;-71
2021/03/16 06:26:09;;;;;;;1999.90;999.90;;;;;;;5.58;70.53;101024.03;15806226;28;20044;-71
2021/03/16 06:33:59;;;;;;;1999.90;999.90;;;;;;;5.66;68.56;101050.28;15848535;28;20455;-72
2021/03/16 06:41:50;;;;;;;1999.90;999.90;;;;;;;5.71;69.28;101059.34;15817272;28;20491;-71
2021/03/16 06:49:41;;;;;;;1999.90;999.90;;;;;;;5.85;68.42;101053.97;15843690;28;20040;-70
2021/03/16 06:57:31;;;;;;;1999.90;999.90;;;;;;;5.86;68.45;101077.75;15868085;28;20122;-72
2021/03/16 07:05:25;;;;;;;1999.90;999.90;;;;;;;5.92;68.41;101084.91;15871259;28;20047;-72
2021/03/16 07:13:17;;;;;;;1999.90;999.90;;;;;;;6.03;67.90;101083.69;15877225;28;20043;-73
2021/03/16 07:21:09;;;;;;;1999.90;999.90;;;;;;;6.03;68.65;101102.25;15869612;28;20109;-71
2021/03/16 07:29:00;;;;;;;1999.90;999.90;;;;;;;6.28;68.15;101118.63;15869732;28;20047;-72
2021/03/16 07:36:53;;;;;;;1999.90;999.90;;;;;;;6.31;68.01;101122.75;15850914;28;20434;-71
2021/03/16 07:44:44;;;;;;;1999.90;999.90;;;;;;;6.56;66.32;101139.06;15866938;28;20506;-71
2021/03/16 07:52:44;;;;;;;1999.90;999.90;;;;;;;6.54;65.89;101149.63;15864335;28;20051;-71
2021/03/16 08:00:35;;;;;;;1999.90;999.90;;;;;;;6.69;64.95;101158.91;15864385;28;20031;-72
2021/03/16 08:08:25;;;;;;;1999.90;999.90;;;;;;;7.10;64.80;101167.50;15863384;28;20224;-71
2021/03/16 08:16:16;;;;;;;1999.90;999.90;;;;;;;7.24;65.08;101180.34;15869229;28;20051;-70
2021/03/16 08:24:09;;;;;;;1999.90;999.90;;;;;;;7.14;64.93;101190.75;15867567;28;20059;-70
2021/03/16 08:32:00;;;;;;;1999.90;999.90;;;;;;;6.86;64.86;101198.88;15860897;28;20039;-71
2021/03/16 08:39:51;;;;;;;1999.90;999.90;;;;;;;7.32;63.70;101211.34;15861648;28;20042;-72
2021/03/16 08:47:42;;;;;;;1999.90;999.90;;;;;;;7.92;62.52;101212.38;15861261;28;20386;-72
2021/03/16 08:55:32;;;;;;;1999.90;999.90;;;;;;;8.45;61.34;101213.97;15859848;28;20050;-72
2021/03/16 09:03:29;;;;;;;1999.90;999.90;;;;;;;10.75;54.91;101227.03;15840911;28;20524;-71
2021/03/16 09:11:30;;;;;;;1999.90;999.90;;;;;;;11.52;53.67;101223.63;15859096;28;20120;-71
2021/03/16 09:19:26;;;;;;;1999.90;999.90;;;;;;;11.38;52.85;101229.34;15840759;28;20048;-72
2021/03/16 09:27:16;;;;;;;1999.90;999.90;;;;;;;11.16;51.46;101229.47;15864034;28;20035;-71
2021/03/16 09:35:08;;;;;;;1999.90;999.90;;;;;;;11.12;51.80;101239.63;15872222;28;20051;-69
2021/03/16 09:43:01;;;;;;;1999.90;999.90;;;;;;;11.74;49.81;101243.03;15870721;28;20043;-71
2021/03/16 09:50:36;;;;;;;1999.90;999.90;;;;;;;12.66;47.32;101238.00;15869716;28;20039;-70
2021/03/16 09:58:19;;;;;;;1999.90;999.90;;;;;;;11.88;48.64;101237.31;15869811;28;20036;-71
2021/03/16 10:06:03;;;;;;;1999.90;999.90;;;;;;;10.87;50.10;101246.78;15852649;28;20039;-72
2021/03/16 10:13:37;;;;;;;1999.90;999.90;;;;;;;10.18;51.17;101251.94;15626758;28;20111;-65
2021/03/16 10:21:09;;;;;;;;;;;;;;;11.26;47.93;101259.91;15625346;28;20116;-64
2021/03/16 10:28:42;;;;;;;1999.90;999.90;;;;;;;11.00;49.26;101254.22;15606243;28;19921;-65
2021/03/16 10:36:15;;;;;;;1999.90;999.90;;;;;;;10.23;51.44;101258.25;15624879;28;20045;-64
2021/03/16 10:43:48;;;;;;;1999.90;999.90;;;;;;;10.57;52.35;101274.38;15623867;28;20363;-65
2021/03/16 10:51:23;;;;;;;1999.90;999.90;;;;;;;11.18;49.56;101269.06;15620078;28;20072;-64
2021/03/16 10:58:54;;;;;;;1999.90;999.90;;;;;;;10.61;51.23;101275.38;15622054;28;20129;-64
2021/03/16 11:06:27;;;;;;;1999.90;999.90;;;;;;;11.67;49.19;101278.22;15620545;28;20494;-65
2021/03/16 11:13:58;;;;;;;1999.90;999.90;;;;;;;11.03;49.59;101284.28;15619501;28;20734;-64
2021/03/16 11:21:31;;;;;;;1999.90;999.90;;;;;;;11.10;49.80;101287.44;15618963;28;20049;-64
2021/03/16 11:29:03;;;;;;;1999.90;999.90;;;;;;;10.03;52.94;101301.38;15620443;28;20516;-66
2021/03/16 11:36:35;;;;;;;1999.90;999.90;;;;;;;10.01;52.80;101300.88;15618296;28;20042;-64
2021/03/16 11:44:33;;;;;;;1999.90;999.90;;;;;;;10.56;52.57;101297.03;15617196;28;20041;-65
2021/03/16 11:52:23;;;;;;;1999.90;999.90;;;;;;;10.18;52.86;101294.59;15618202;28;20046;-63
2021/03/16 12:00:14;;;;;;;1999.90;999.90;;;;;;;10.02;52.73;101291.38;15599120;28;20041;-66
2021/03/16 12:08:06;;;;;;;1999.90;999.90;;;;;;;10.39;51.93;101281.00;15615865;28;20042;-66
2021/03/16 12:15:56;;;;;;;1999.90;999.90;;;;;;;10.23;52.03;101277.78;15617026;28;20064;-64
2021/03/16 12:23:47;;;;;;;1999.90;999.90;;;;;;;10.12;52.98;101279.13;15616509;28;20049;-64
2021/03/16 12:31:38;;;;;;;1999.90;999.90;;;;;;;10.25;52.06;101285.81;15617185;28;20281;-61
2021/03/16 12:39:28;;;;;;;1999.90;999.90;;;;;;;9.98;52.49;101279.19;15615898;28;20033;-61
2021/03/16 12:47:19;;;;;;;1999.90;999.90;;;;;;;10.23;51.64;101277.78;15615493;28;20379;-62
2021/03/16 12:55:11;;;;;;;1999.90;999.90;;;;;;;9.60;53.47;101281.47;15613490;28;20052;-64
2021/03/16 13:03:02;;;;;;;1999.90;999.90;;;;;;;9.98;53.11;101293.13;15614990;28;20089;-65
2021/03/16 13:10:53;;;;;;;1999.90;999.90;;;;;;;10.15;51.72;101289.66;15613540;28;20050;-64
2021/03/16 13:18:43;;;;;;;1999.90;999.90;;;;;;;10.15;52.36;101283.25;15596038;28;20050;-64
2021/03/16 13:26:34;;;;;;;1999.90;999.90;;;;;;;10.20;51.07;101285.91;15614597;28;20144;-64
2021/03/16 13:34:24;;;;;;;1999.90;999.90;;;;;;;10.23;50.09;101283.34;15613727;28;20596;-64
2021/03/16 13:42:15;;;;;;;1999.90;999.90;;;;;;;12.89;44.21;101286.19;15596052;28;20572;-64
2021/03/16 13:50:06;;;;;;;1999.90;999.90;;;;;;;12.14;45.81;101293.25;15613562;28;20045;-64
2021/03/16 13:57:57;;;;;;;1999.90;999.90;;;;;;;11.40;47.38;101301.69;15613380;28;20037;-64
2021/03/16 14:05:47;;;;;;;1999.90;999.90;;;;;;;10.89;47.21;101300.31;15613382;28;20424;-64
2021/03/16 14:13:38;;;;;;;1999.90;999.90;;;;;;;11.76;46.64;101313.41;15616640;28;20453;-63
2021/03/16 14:21:28;;;;;;;1999.90;999.90;;;;;;;11.15;45.79;101312.44;15622948;28;20124;-65
2021/03/16 14:29:19;;;;;;;1999.90;999.90;;;;;;;11.19;45.74;101312.63;15607430;28;20218;-63
2021/03/16 14:37:11;;;;;;;1999.90;999.90;;;;;;;11.19;46.32;101318.22;15623613;28;20128;-64
2021/03/16 14:45:02;;;;;;;1999.90;999.90;;;;;;;11.29;46.26;101329.09;15605018;28;20080;-63
2021/03/16 14:52:52;;;;;;;1999.90;999.90;;;;;;;10.90;48.13;101322.34;15622063;28;20042;-64
2021/03/16 15:00:43;;;;;;;1999.90;999.90;;;;;;;11.02;47.61;101320.91;15582356;28;20688;-63
2021/03/16 15:08:35;;;;;;;1999.90;999.90;;;;;;;10.02;47.50;101324.00;15577999;28;20042;-63
2021/03/16 15:16:26;;;;;;;1999.90;999.90;;;;;;;10.33;47.42;101338.06;15656743;28;20148;-65
2021/03/16 15:24:16;;;;;;;1999.90;999.90;;;;;;;10.37;47.12;101333.50;15632217;28;20036;-65
2021/03/16 15:32:09;;;;;;;1999.90;999.90;;;;;;;10.36;47.62;101324.31;15649426;28;20136;-63
2021/03/16 15:39:59;;;;;;;1999.90;999.90;;;;;;;9.87;47.96;101321.53;15608666;28;20046;-62
2021/03/16 15:47:49;;;;;;;1999.90;999.90;;;;;;;9.75;49.37;101331.28;15632992;28;20148;-65
2021/03/16 15:55:39;;;;;;;1999.90;999.90;;;;;;;9.95;49.35;101330.00;15621815;28;20120;-62
2021/03/16 16:03:30;;;;;;;1999.90;999.90;;;;;;;9.90;49.58;101330.13;15620105;28;20497;-66
2021/03/16 16:11:21;;;;;;;1999.90;999.90;;;;;;;9.55;50.86;101334.50;15593125;28;20493;-64
2021/03/16 16:19:12;;;;;;;1999.90;999.90;;;;;;;9.34;51.96;101334.09;15583239;28;20052;-64
2021/03/16 16:27:02;;;;;;;1999.90;999.90;;;;;;;9.38;51.32;101334.31;15747725;23;20483;-72
2021/03/16 16:34:53;;;;;;;1999.90;999.90;;;;;;;9.05;52.12;101344.72;15801094;28;20032;-73
2021/03/16 16:42:43;;;;;;;1999.90;999.90;;;;;;;8.93;52.63;101345.22;15787071;28;20052;-72
2021/03/16 16:50:35;;;;;;;1999.90;999.90;;;;;;;8.93;52.73;101357.16;15836750;28;20052;-72
2021/03/16 16:58:24;;;;;;;1999.90;999.90;;;;;;;8.48;53.75;101355.19;15821460;28;20050;-72
2021/03/16 17:06:16;;;;;;;1999.90;999.90;;;;;;;8.53;53.66;101361.50;15814850;28;20176;-73
2021/03/16 17:14:06;;;;;;;1999.90;999.90;;;;;;;8.44;54.64;101379.16;15805683;28;20040;-71
2021/03/16 17:21:57;;;;;;;1999.90;999.90;;;;;;;8.27;55.70;101388.03;15782151;28;20561;-72
2021/03/16 17:29:48;;;;;;;1999.90;999.90;;;;;;;8.11;55.74;101390.19;15798725;28;20044;-71
2021/03/16 17:37:41;;;;;;;1999.90;999.90;;;;;;;7.86;57.00;101401.69;15799134;28;20036;-71
2021/03/16 17:45:31;;;;;;;1999.90;999.90;;;;;;;7.57;57.30;101393.44;15801030;28;20036;-73
2021/03/16 17:53:24;;;;;;;1999.90;999.90;;;;;;;7.43;58.23;101405.28;15809178;28;20061;-72
2021/03/16 18:01:14;;;;;;;1999.90;999.90;;;;;;;7.12;58.69;101410.31;15803114;28;20040;-71
2021/03/16 18:09:05;;;;;;;1999.90;999.90;;;;;;;6.94;59.23;101419.38;15793650;28;20052;-73
2021/03/16 18:16:55;;;;;;;1999.90;999.90;;;;;;;6.74;59.38;101420.38;15791177;28;20040;-71
2021/03/16 18:24:46;;;;;;;1999.90;999.90;;;;;;;6.58;60.41;101428.00;15809241;28;20048;-71
2021/03/16 18:32:37;;;;;;;1999.90;999.90;;;;;;;6.48;60.84;101430.03;15810142;28;20040;-73
2021/03/16 18:40:28;;;;;;;1999.90;999.90;;;;;;;6.27;61.39;101432.94;15793083;28;20093;-70
2021/03/16 18:48:17;;;;;;;1999.90;999.90;;;;;;;6.13;61.29;101442.16;15805761;28;20066;-73
2021/03/16 18:56:08;;;;;;;1999.90;999.90;;;;;;;5.93;61.23;101434.78;15824382;28;20036;-71
2021/03/16 19:03:59;;;;;;;1999.90;999.90;;;;;;;6.02;60.97;101439.44;15813947;28;20047;-71
2021/03/16 19:11:50;;;;;;;1999.90;999.90;;;;;;;5.83;61.47;101440.31;15790336;28;20384;-73
2021/03/16 19:19:40;;;;;;;1999.90;999.90;;;;;;;5.69;61.89;101446.47;15812923;28;20048;-72
2021/03/16 19:27:34;;;;;;;1999.90;999.90;;;;;;;5.59;62.02;101454.81;15794420;28;20132;-71
2021/03/16 19:35:24;;;;;;;1999.90;999.90;;;;;;;5.47;62.15;101460.69;15743316;28;20072;-73
2021/03/16 19:43:15;;;;;;;1999.90;999.90;;;;;;;5.36;62.39;101467.34;15808228;28;20043;-72
2021/03/16 19:51:05;;;;;;;1999.90;999.90;;;;;;;5.31;62.72;101472.03;15804780;28;20044;-73
2021/03/16 19:58:56;;;;;;;1999.90;999.90;;;;;;;5.16;63.52;101462.66;15809273;28;20046;-72
2021/03/16 20:06:46;;;;;;;1999.90;999.90;;;;;;;5.05;63.45;101477.63;15815504;28;20115;-72
2021/03/16 20:14:37;;;;;;;1999.90;999.90;;;;;;;5.04;63.46;101483.44;15805856;28;20032;-74
2021/03/16 20:22:27;;;;;;;1999.90;999.90;;;;;;;4.85;63.99;101483.16;15808153;28;20043;-73
2021/03/16 20:30:19;;;;;;;1999.90;999.90;;;;;;;4.77;64.68;101489.22;15802063;28;20039;-72
2021/03/16 20:38:09;;;;;;;1999.90;999.90;;;;;;;4.54;64.74;101494.19;15801089;28;20032;-72
2021/03/16 20:46:01;;;;;;;1999.90;999.90;;;;;;;4.59;64.39;101494.22;15802053;28;20048;-73
2021/03/16 20:53:51;;;;;;;1999.90;999.90;;;;;;;4.35;65.17;101493.88;15802855;28;20645;-73
2021/03/16 21:01:43;;;;;;;1999.90;999.90;;;;;;;4.47;65.20;101504.66;15800131;28;20135;-71
2021/03/16 21:09:33;;;;;;;1999.90;999.90;;;;;;;4.35;65.51;101513.22;15801067;28;20165;-73
2021/03/16 21:17:24;;;;;;;1999.90;999.90;;;;;;;4.15;66.29;101504.03;15801302;28;20586;-72
2021/03/16 21:25:14;;;;;;;1999.90;999.90;;;;;;;4.14;66.39;101516.19;15805376;28;20032;-73
2021/03/16 21:33:06;;;;;;;1999.90;999.90;;;;;;;4.12;66.07;101510.09;15799320;28;20044;-70
2021/03/16 21:40:56;;;;;;;1999.90;999.90;;;;;;;4.04;65.79;101506.75;15805472;28;20044;-73
2021/03/16 21:48:47;;;;;;;1999.90;999.90;;;;;;;3.94;66.27;101520.50;15779971;28;20389;-73
2021/03/16 21:56:37;;;;;;;1999.90;999.90;;;;;;;3.85;66.39;101526.81;15811075;28;20040;-74
2021/03/16 22:04:32;;;;;;;1999.90;999.90;;;;;;;3.75;66.96;101524.84;15821722;28;20071;-74
2021/03/16 22:12:22;;;;;;;1999.90;999.90;;;;;;;3.82;67.07;101519.91;15744981;22;20453;-62
2021/03/16 22:20:16;;;;;;;1999.90;999.90;;;;;;;3.88;67.38;101527.13;15691591;28;20124;-62
2021/03/16 22:28:06;;;;;;;1999.90;999.90;;;;;;;3.92;67.12;101522.72;15717721;22;20585;-54
2021/03/16 22:35:57;;;;;;;1999.90;999.90;;;;;;;3.74;67.61;101518.47;15697547;28;20044;-57
2021/03/16 22:43:48;;;;;;;1999.90;999.90;;;;;;;3.43;67.89;101506.44;15717621;28;20103;-54
2021/03/16 22:51:38;;;;;;;1999.90;999.90;;;;;;;3.30;68.02;101517.94;15721216;28;20476;-55
2021/03/16 22:59:28;;;;;;;1999.90;999.90;;;;;;;2.98;69.40;101506.94;15702972;28;20052;-51
2021/03/16 23:07:19;;;;;;;1999.90;999.90;;;;;;;3.09;69.27;101514.19;15693233;28;20040;-53
2021/03/16 23:15:13;;;;;;;1999.90;999.90;;;;;;;3.10;69.03;101518.59;15706238;28;20052;-57
2021/03/16 23:23:04;;;;;;;1999.90;999.90;;;;;;;2.88;69.76;101506.84;15696324;28;20048;-52
2021/03/16 23:30:57;;;;;;;1999.90;999.90;;;;;;;2.82;69.60;101496.88;15707517;28;20037;-55
2021/03/16 23:38:48;;;;;;;1999.90;999.90;;;;;;;2.73;69.63;101509.47;15698530;28;20044;-53
2021/03/16 23:46:38;;;;;;;1999.90;999.90;;;;;;;2.60;69.97;101496.94;15731206;28;20493;-52
2021/03/16 23:54:28;;;;;;;1999.90;999.90;;;;;;;2.58;70.23;101501.88;15695291;28;20048;-54
